Time;durP1;ratioP1;P1;durP2;ratioP2;P2;SDS_P1;SDS_P2;PMS_P1;PMS_P2;Temp;Humidity;BMP_temperature;BMP_pressure;BME280_temperature;BME280_humidity;BME280_pressure;Samples;Min_cycle;Max_cycle;Signal;HPM_P1;HPM_P2
2022/02/19 00:01:36;;;;;;;36.35;16.27;;;;;;;0.55;92.02;93236.78;5010355;28;20050;-85
2022/02/19 00:04:03;;;;;;;34.08;18.65;;;;;;;0.60;91.93;93229.56;5011085;28;20461;-83
2022/02/19 00:06:33;;;;;;;31.40;16.17;;;;;;;0.71;91.26;93239.44;5011040;28;20073;-83
2022/02/19 00:09:00;;;;;;;30.75;14.68;;;;;;;0.72;91.17;93258.72;5011017;28;20141;-83
2022/02/19 00:11:27;;;;;;;30.52;15.25;;;;;;;0.73;90.85;93259.50;5010932;28;20421;-83
2022/02/19 00:13:54;;;;;;;22.13;13.15;;;;;;;0.89;90.07;93282.34;5011273;28;20046;-83
2022/02/19 00:16:22;;;;;;;20.13;10.88;;;;;;;0.87;90.07;93283.44;5010826;28;20050;-84
2022/02/19 00:18:48;;;;;;;17.58;8.95;;;;;;;0.90;90.37;93278.91;5010939;28;20065;-84
2022/02/19 00:21:16;;;;;;;17.55;8.20;;;;;;;0.97;89.65;93276.56;5010974;28;20042;-84
2022/02/19 00:23:44;;;;;;;17.75;8.45;;;;;;;1.04;89.00;93276.75;5010777;28;20057;-83
2022/02/19 00:26:11;;;;;;;11.98;5.75;;;;;;;0.97;89.05;93274.03;5014236;28;20610;-83
2022/02/19 00:28:38;;;;;;;14.25;6.40;;;;;;;1.06;88.60;93280.72;5014563;28;20164;-83
2022/02/19 00:31:04;;;;;;;17.55;8.02;;;;;;;1.05;88.02;93278.34;5014918;28;20057;-83
2022/02/19 00:33:31;;;;;;;20.45;9.63;;;;;;;0.93;87.97;93260.88;5014609;28;20046;-83
2022/02/19 00:35:58;;;;;;;25.70;12.18;;;;;;;0.89;89.13;93276.53;5014675;28;20053;-84
2022/02/19 00:38:25;;;;;;;23.95;12.48;;;;;;;0.73;89.80;93275.47;5014711;28;20050;-83
2022/02/19 00:40:53;;;;;;;29.67;16.27;;;;;;;0.59;91.78;93281.84;5014459;28;21748;-83
2022/02/19 00:43:20;;;;;;;35.03;18.95;;;;;;;0.39;93.34;93283.75;5014592;28;20050;-84
2022/02/19 00:45:49;;;;;;;33.97;15.23;;;;;;;0.26;94.47;93279.84;5014544;28;20046;-83
2022/02/19 00:48:16;;;;;;;31.00;16.55;;;;;;;0.16;95.66;93273.28;5014384;28;20054;-84
2022/02/19 00:50:43;;;;;;;38.28;14.85;;;;;;;0.05;95.61;93272.53;5014308;28;20046;-84
2022/02/19 00:53:10;;;;;;;29.60;14.60;;;;;;;0.20;96.09;93272.06;5014346;28;20112;-84
2022/02/19 00:55:37;;;;;;;39.22;18.70;;;;;;;0.29;95.07;93262.81;5014124;28;20054;-84
2022/02/19 00:58:05;;;;;;;35.50;16.75;;;;;;;0.30;94.51;93255.09;5014229;28;20049;-84
2022/02/19 01:00:35;;;;;;;39.72;17.05;;;;;;;0.45;93.25;93244.44;5014103;28;20092;-83
2022/02/19 01:03:02;;;;;;;31.05;12.65;;;;;;;0.47;92.34;93235.78;5014086;28;20069;-83
2022/02/19 01:05:29;;;;;;;22.77;9.20;;;;;;;0.52;91.05;93225.25;5014109;28;20045;-83
2022/02/19 01:07:55;;;;;;;16.45;7.22;;;;;;;0.69;90.74;93231.19;5013952;28;20108;-84
2022/02/19 01:10:22;;;;;;;17.73;6.88;;;;;;;0.78;90.45;93239.59;5013957;28;20049;-83
2022/02/19 01:12:49;;;;;;;16.40;5.40;;;;;;;0.86;89.26;93233.81;5014117;28;20049;-82
2022/02/19 01:15:17;;;;;;;13.52;5.18;;;;;;;0.97;89.09;93238.63;5013826;28;20489;-83
2022/02/19 01:17:44;;;;;;;16.27;5.57;;;;;;;0.83;88.06;93206.31;5013928;28;20049;-83
2022/02/19 01:20:12;;;;;;;15.65;5.80;;;;;;;1.03;87.10;93243.06;5013941;28;20050;-83
2022/02/19 01:22:41;;;;;;;16.48;4.40;;;;;;;1.13;87.30;93244.72;5013637;28;20095;-83
2022/02/19 01:25:10;;;;;;;12.90;4.72;;;;;;;0.92;86.63;93207.91;5013620;28;20494;-83
2022/02/19 01:27:37;;;;;;;9.68;3.60;;;;;;;1.20;86.01;93238.91;5013842;28;20390;-83
2022/02/19 01:30:05;;;;;;;11.75;4.07;;;;;;;1.22;85.14;93233.69;5013591;28;20053;-83
2022/02/19 01:32:33;;;;;;;14.85;4.40;;;;;;;1.23;85.55;93242.88;5013548;28;20053;-83
2022/02/19 01:35:00;;;;;;;12.88;4.18;;;;;;;1.24;85.00;93229.25;5013424;28;20050;-84
2022/02/19 01:37:27;;;;;;;9.10;3.50;;;;;;;1.27;84.54;93228.97;5012640;28;20049;-83
2022/02/19 01:39:54;;;;;;;10.23;3.80;;;;;;;1.37;84.05;93235.63;5013777;28;20053;-83
2022/02/19 01:42:21;;;;;;;7.22;2.70;;;;;;;1.43;82.84;93235.03;5013539;28;20050;-83
2022/02/19 01:44:51;;;;;;;7.97;2.50;;;;;;;1.45;83.40;93233.91;5013325;28;20065;-83
2022/02/19 01:47:18;;;;;;;6.22;2.05;;;;;;;1.50;82.17;93225.09;5013394;28;20414;-84
2022/02/19 01:49:48;;;;;;;7.20;2.22;;;;;;;1.52;83.17;93218.16;5013157;28;20046;-84
2022/02/19 01:52:17;;;;;;;7.97;2.22;;;;;;;1.51;82.28;93222.41;5013181;28;20513;-83
2022/02/19 01:54:45;;;;;;;7.25;3.05;;;;;;;1.56;82.17;93212.59;5013269;28;20131;-83
2022/02/19 01:57:12;;;;;;;6.57;2.60;;;;;;;1.58;81.96;93215.00;5013162;28;20042;-84
2022/02/19 01:59:41;;;;;;;7.18;2.30;;;;;;;1.52;81.68;93203.72;5013127;28;20137;-84
2022/02/19 02:02:09;;;;;;;6.18;2.45;;;;;;;1.60;81.32;93213.91;5012716;28;20088;-84
2022/02/19 02:04:36;;;;;;;5.65;1.95;;;;;;;1.67;80.97;93214.03;5012853;28;20050;-84
2022/02/19 02:07:05;;;;;;;8.05;2.67;;;;;;;1.43;80.99;93167.47;5012941;28;20112;-84
2022/02/19 02:09:35;;;;;;;10.80;3.05;;;;;;;1.73;80.71;93208.34;5012920;28;20486;-84
2022/02/19 02:12:03;;;;;;;10.73;2.85;;;;;;;1.69;80.26;93207.09;5012822;28;20050;-84
2022/02/19 02:14:30;;;;;;;11.88;3.20;;;;;;;1.74;80.12;93204.09;5012673;28;20050;-85
2022/02/19 02:16:57;;;;;;;6.30;2.72;;;;;;;1.79;78.89;93196.03;5013162;28;20050;-84
2022/02/19 02:19:24;;;;;;;10.55;3.83;;;;;;;1.81;78.37;93201.75;5012819;28;20104;-84
2022/02/19 02:21:52;;;;;;;9.13;3.80;;;;;;;1.81;78.36;93199.22;5012792;28;20050;-84
2022/02/19 02:24:19;;;;;;;13.25;4.20;;;;;;;1.85;78.83;93205.56;5012753;28;20140;-84
2022/02/19 02:26:47;;;;;;;10.43;3.85;;;;;;;1.89;78.24;93196.69;5012600;28;20061;-84
2022/02/19 02:29:14;;;;;;;11.45;4.18;;;;;;;1.87;77.33;93198.59;5012408;28;20057;-85
2022/02/19 02:31:41;;;;;;;10.63;4.78;;;;;;;1.63;77.29;93169.75;5012620;28;20058;-84
2022/02/19 02:34:08;;;;;;;10.85;4.32;;;;;;;1.81;77.46;93197.47;5000637;28;20498;-85
2022/02/19 02:36:34;;;;;;;14.27;5.32;;;;;;;1.85;77.30;93197.97;5012529;28;20050;-85
2022/02/19 02:39:03;;;;;;;17.05;6.90;;;;;;;1.80;77.70;93188.28;5012885;28;20042;-85
2022/02/19 02:41:30;;;;;;;15.07;6.60;;;;;;;1.83;77.76;93198.09;5012419;28;20132;-85
2022/02/19 02:43:57;;;;;;;12.75;5.18;;;;;;;1.75;77.89;93187.19;5012070;28;20057;-85
2022/02/19 02:46:24;;;;;;;9.63;3.67;;;;;;;1.79;77.92;93194.28;5012214;28;20417;-85
2022/02/19 02:48:51;;;;;;;7.80;2.80;;;;;;;1.80;77.05;93193.34;5012370;28;20046;-84
2022/02/19 02:51:17;;;;;;;5.90;2.53;;;;;;;1.76;76.95;93192.06;5012119;28;20509;-84
2022/02/19 02:53:44;;;;;;;7.65;3.15;;;;;;;1.80;76.63;93195.88;5012035;28;20550;-84
2022/02/19 02:56:13;;;;;;;9.35;3.08;;;;;;;1.70;75.87;93180.03;5012001;28;20077;-84
2022/02/19 02:58:39;;;;;;;6.30;2.20;;;;;;;1.91;75.56;93201.59;5011907;28;20057;-85
2022/02/19 03:01:07;;;;;;;6.07;2.50;;;;;;;1.95;74.52;93196.06;5011795;28;20489;-84
2022/02/19 03:03:34;;;;;;;6.65;2.10;;;;;;;2.02;73.26;93200.47;5012035;28;20070;-84
2022/02/19 03:06:03;;;;;;;5.40;2.25;;;;;;;2.10;72.55;93206.38;5011856;28;20080;-84
2022/02/19 03:08:30;;;;;;;8.82;2.70;;;;;;;2.16;72.90;93206.69;5011790;28;20041;-84
2022/02/19 03:10:57;;;;;;;8.40;2.03;;;;;;;2.20;72.72;93201.16;5011542;28;20075;-84
2022/02/19 03:13:25;;;;;;;4.60;1.90;;;;;;;2.19;71.67;93197.03;5011897;28;20046;-84
2022/02/19 03:15:52;;;;;;;5.32;1.83;;;;;;;2.24;70.36;93192.28;5011688;28;20046;-84
2022/02/19 03:18:18;;;;;;;5.35;1.95;;;;;;;2.26;70.45;93194.63;5011583;28;20547;-84
2022/02/19 03:20:47;;;;;;;8.55;1.90;;;;;;;2.30;69.24;93190.06;5011618;28;20093;-84
2022/02/19 03:23:14;;;;;;;6.63;1.50;;;;;;;2.39;68.67;93181.50;5011510;28;20406;-84
2022/02/19 03:25:40;;;;;;;5.75;1.45;;;;;;;2.42;67.98;93193.84;5011412;28;20058;-84
2022/02/19 03:28:07;;;;;;;8.27;2.10;;;;;;;2.43;66.69;93197.97;5011488;28;20042;-84
2022/02/19 03:30:35;;;;;;;8.35;2.83;;;;;;;2.45;66.45;93206.19;5011612;28;20193;-84
2022/02/19 03:33:02;;;;;;;11.38;3.28;;;;;;;2.38;66.90;93211.13;5011373;28;20096;-84
2022/02/19 03:35:29;;;;;;;9.20;3.53;;;;;;;2.20;67.26;93218.09;5011341;28;20045;-84
2022/02/19 03:37:56;;;;;;;8.60;3.50;;;;;;;2.26;66.56;93210.66;5011350;28;20050;-84
2022/02/19 03:40:22;;;;;;;13.07;3.50;;;;;;;2.46;66.23;93223.00;5009855;28;20482;-84
2022/02/19 03:42:49;;;;;;;8.55;2.92;;;;;;;2.49;64.57;93219.34;5011387;28;20049;-84
2022/02/19 03:45:16;;;;;;;6.55;2.55;;;;;;;2.53;64.97;93228.22;5011211;28;20108;-84
2022/02/19 03:47:44;;;;;;;9.73;3.67;;;;;;;2.47;65.58;93227.13;5011159;28;20057;-84
2022/02/19 03:50:14;;;;;;;11.73;4.50;;;;;;;2.48;66.03;93238.84;5011127;28;20148;-84
2022/02/19 03:52:42;;;;;;;11.93;4.60;;;;;;;2.52;66.42;93231.72;5010981;28;20536;-84
2022/02/19 03:55:10;;;;;;;12.32;3.63;;;;;;;2.41;65.85;93225.22;5011313;28;20046;-84
2022/02/19 03:57:37;;;;;;;8.90;2.50;;;;;;;2.45;66.22;93228.25;5010971;28;20050;-84
2022/02/19 04:00:06;;;;;;;9.15;2.50;;;;;;;2.46;65.76;93214.59;5010547;28;20097;-84
2022/02/19 04:02:35;;;;;;;11.30;2.72;;;;;;;2.57;65.26;93229.50;5011385;28;20053;-84
2022/02/19 04:05:03;;;;;;;8.18;2.45;;;;;;;2.56;65.60;93225.38;5010803;28;20141;-84
2022/02/19 04:07:30;;;;;;;8.30;2.90;;;;;;;2.54;63.81;93214.59;5011261;28;20061;-84
2022/02/19 04:09:57;;;;;;;11.00;3.40;;;;;;;2.53;64.02;93211.28;5011010;28;20053;-84
2022/02/19 04:12:25;;;;;;;6.78;2.40;;;;;;;2.56;63.33;93216.97;5011085;28;20062;-84
2022/02/19 04:14:52;;;;;;;8.18;2.92;;;;;;;2.61;63.70;93217.28;5010924;28;20054;-84
2022/02/19 04:17:19;;;;;;;9.20;3.33;;;;;;;2.60;63.48;93213.16;5011307;28;20061;-84
2022/02/19 04:19:46;;;;;;;11.40;3.15;;;;;;;2.63;64.16;93218.72;5010706;28;20053;-84
2022/02/19 04:22:15;;;;;;;8.27;3.63;;;;;;;2.60;64.56;93210.63;5010975;28;20056;-84
2022/02/19 04:24:41;;;;;;;11.75;4.50;;;;;;;2.63;64.89;93207.75;5010942;28;20062;-84
2022/02/19 04:27:08;;;;;;;11.82;4.47;;;;;;;2.58;63.69;93208.25;5010943;28;20046;-84
2022/02/19 04:29:35;;;;;;;9.30;2.80;;;;;;;2.58;64.51;93210.78;5010710;28;20085;-84
2022/02/19 04:32:02;;;;;;;13.05;5.10;;;;;;;2.53;64.75;93226.50;5010685;28;20494;-84
2022/02/19 04:34:29;;;;;;;12.82;4.97;;;;;;;2.49;66.90;93217.59;5010735;28;20494;-84
2022/02/19 04:36:56;;;;;;;15.88;4.88;;;;;;;2.51;66.66;93222.53;5010719;28;20050;-84
2022/02/19 04:39:24;;;;;;;15.95;5.35;;;;;;;2.42;68.02;93219.22;5010671;28;20050;-84
2022/02/19 04:41:51;;;;;;;12.10;4.95;;;;;;;2.39;66.53;93225.38;5011124;28;20116;-84
2022/02/19 04:44:18;;;;;;;16.10;5.75;;;;;;;2.29;68.62;93216.34;5010584;28;20050;-83
2022/02/19 04:46:45;;;;;;;24.60;11.55;;;;;;;2.28;68.29;93223.16;5010362;28;20461;-84
2022/02/19 04:49:11;;;;;;;32.67;24.50;;;;;;;2.31;69.13;93224.59;5010573;28;20881;-84
2022/02/19 04:51:38;;;;;;;23.92;14.40;;;;;;;2.24;68.23;93220.16;5010381;28;20055;-84
2022/02/19 04:54:06;;;;;;;15.52;5.38;;;;;;;2.24;68.40;93225.22;5010377;28;20042;-84
2022/02/19 04:56:34;;;;;;;13.75;4.30;;;;;;;2.22;67.75;93223.81;5009965;28;20061;-84
2022/02/19 04:59:01;;;;;;;14.43;4.38;;;;;;;2.30;68.64;93225.56;5009967;28;20046;-84
2022/02/19 05:01:28;;;;;;;14.32;4.13;;;;;;;2.29;67.44;93223.94;5009236;28;20068;-84
2022/02/19 05:03:56;;;;;;;15.75;5.03;;;;;;;2.25;68.82;93224.28;5009921;28;20046;-84
2022/02/19 05:06:23;;;;;;;12.90;4.07;;;;;;;2.21;68.43;93235.66;5009958;28;20046;-84
2022/02/19 05:08:50;;;;;;;13.30;4.57;;;;;;;2.13;67.89;93228.84;5009934;28;20042;-84
2022/02/19 05:11:17;;;;;;;18.23;7.60;;;;;;;2.22;68.54;93234.72;5010033;28;20049;-84
2022/02/19 05:13:46;;;;;;;14.10;4.68;;;;;;;2.20;69.12;93231.56;5013463;28;20065;-84
2022/02/19 05:16:12;;;;;;;16.55;4.93;;;;;;;2.20;68.21;93234.09;5013867;28;20049;-84
2022/02/19 05:18:39;;;;;;;13.02;3.25;;;;;;;2.24;68.00;93240.44;5013853;28;20494;-84
2022/02/19 05:21:06;;;;;;;10.77;3.80;;;;;;;2.24;67.90;93242.97;5013901;28;20074;-84
2022/02/19 05:23:33;;;;;;;7.78;2.40;;;;;;;2.24;67.40;93244.72;5013817;28;20054;-84
2022/02/19 05:26:00;;;;;;;13.68;3.97;;;;;;;2.31;66.29;93239.81;5009091;28;20054;-84
2022/02/19 05:28:27;;;;;;;15.02;3.95;;;;;;;2.18;65.68;93225.84;5013329;28;20054;-84
2022/02/19 05:30:55;;;;;;;8.75;2.83;;;;;;;2.37;64.70;93242.47;5013562;28;20508;-85
2022/02/19 05:33:22;;;;;;;10.60;2.88;;;;;;;2.36;64.79;93242.66;5013754;28;20045;-84
2022/02/19 05:35:48;;;;;;;7.63;2.72;;;;;;;2.40;63.89;93248.97;5013672;28;20054;-84
2022/02/19 05:38:15;;;;;;;9.77;3.45;;;;;;;2.47;61.93;93244.06;5013443;28;20050;-84
2022/02/19 05:40:42;;;;;;;9.07;2.85;;;;;;;2.61;62.52;93235.84;5013467;28;20054;-83
2022/02/19 05:43:09;;;;;;;7.70;2.40;;;;;;;2.68;60.57;93228.34;5013097;28;20046;-84
2022/02/19 05:45:37;;;;;;;11.18;2.00;;;;;;;2.69;60.34;93209.69;5013530;28;20049;-84
2022/02/19 05:48:06;;;;;;;8.82;2.90;;;;;;;2.85;60.85;93225.81;5013354;28;20494;-83
2022/02/19 05:50:32;;;;;;;12.00;4.53;;;;;;;2.83;61.54;93220.91;5013380;28;20108;-84
2022/02/19 05:53:02;;;;;;;14.00;5.13;;;;;;;2.76;61.01;93204.72;5013332;28;20050;-84
2022/02/19 05:55:28;;;;;;;14.35;6.53;;;;;;;2.87;61.29;93206.16;5013122;28;20049;-84
2022/02/19 05:57:58;;;;;;;12.73;4.03;;;;;;;2.89;60.55;93189.00;5013120;28;20046;-84
2022/02/19 06:00:25;;;;;;;7.15;2.65;;;;;;;3.01;62.25;93202.16;5013432;28;20124;-83
2022/02/19 06:02:52;;;;;;;9.82;2.47;;;;;;;2.98;61.39;93182.16;5013108;28;20092;-83
2022/02/19 06:05:21;;;;;;;9.07;2.80;;;;;;;3.07;61.83;93186.28;5012968;28;20046;-83
2022/02/19 06:07:48;;;;;;;9.30;2.83;;;;;;;3.21;60.96;93182.25;5012886;28;20056;-83
2022/02/19 06:10:14;;;;;;;10.90;2.90;;;;;;;3.27;60.48;93181.59;5013146;28;20422;-83
2022/02/19 06:12:43;;;;;;;9.70;2.60;;;;;;;3.43;59.92;93185.03;5012994;28;20053;-84
2022/02/19 06:15:10;;;;;;;9.32;3.10;;;;;;;3.54;59.57;93192.25;5012952;28;20046;-82
2022/02/19 06:17:37;;;;;;;10.55;2.90;;;;;;;3.42;59.25;93156.28;5013039;28;20054;-85
2022/02/19 06:20:05;;;;;;;7.75;2.75;;;;;;;3.69;59.11;93194.88;5012660;28;20106;-84
2022/02/19 06:22:33;;;;;;;9.27;2.80;;;;;;;3.84;58.71;93212.72;5012240;28;20061;-85
2022/02/19 06:25:00;;;;;;;6.78;3.00;;;;;;;3.98;57.47;93215.53;5012360;28;20129;-84
2022/02/19 06:27:27;;;;;;;10.10;3.15;;;;;;;4.03;56.18;93209.94;5012600;28;20100;-85
2022/02/19 06:29:54;;;;;;;15.18;3.28;;;;;;;4.23;56.61;93243.31;5012628;28;20050;-84
2022/02/19 06:32:20;;;;;;;12.52;3.65;;;;;;;4.35;55.51;93243.72;5012300;28;20053;-85
2022/02/19 06:34:47;;;;;;;15.02;3.95;;;;;;;4.47;55.09;93247.44;5012044;28;20050;-85
2022/02/19 06:37:14;;;;;;;10.77;3.60;;;;;;;4.57;54.61;93256.59;5012264;28;20045;-84
2022/02/19 06:39:42;;;;;;;13.25;3.55;;;;;;;4.74;53.65;93249.59;5012323;28;20426;-85
2022/02/19 06:42:09;;;;;;;12.95;4.25;;;;;;;4.82;54.72;93247.78;5011256;28;20050;-83
2022/02/19 06:44:36;;;;;;;13.80;3.55;;;;;;;5.01;54.36;93250.00;5008529;28;20046;-83
2022/02/19 06:47:04;;;;;;;11.85;3.38;;;;;;;5.12;53.55;93243.66;5011087;28;20053;-84
2022/02/19 06:49:33;;;;;;;6.95;2.53;;;;;;;5.32;52.53;93231.22;5012074;28;20057;-90
2022/02/19 06:52:00;;;;;;;9.20;2.90;;;;;;;5.40;51.75;93220.13;5010953;28;20072;-82
2022/02/19 06:54:27;;;;;;;8.65;2.47;;;;;;;5.55;51.23;93225.22;5012260;28;20193;-84
2022/02/19 06:56:58;;;;;;;10.07;2.80;;;;;;;5.68;51.07;93230.47;5011658;28;20088;-84
2022/02/19 06:59:25;;;;;;;8.57;2.33;;;;;;;5.96;49.16;93255.28;5011816;28;20042;-83
2022/02/19 07:01:51;;;;;;;10.90;2.72;;;;;;;6.14;49.74;93247.28;5011755;28;20053;-82
2022/02/19 07:04:18;;;;;;;8.30;2.85;;;;;;;6.31;49.29;93246.25;5009819;28;20460;-84
2022/02/19 07:06:45;;;;;;;31.48;13.63;;;;;;;6.45;49.10;93244.59;5011307;28;20445;-84
2022/02/19 07:09:12;;;;;;;29.15;15.88;;;;;;;6.50;48.89;93225.22;5012052;28;20050;-83
2022/02/19 07:11:39;;;;;;;15.43;6.00;;;;;;;6.75;48.72;93241.91;5011062;28;20123;-83
2022/02/19 07:14:08;;;;;;;8.88;2.95;;;;;;;6.88;48.15;93246.31;5011866;28;20061;-83
2022/02/19 07:16:34;;;;;;;9.10;2.97;;;;;;;6.88;47.88;93234.34;5011485;28;20104;-85
2022/02/19 07:19:01;;;;;;;9.60;3.63;;;;;;;6.99;47.61;93237.34;5011491;28;20046;-84
2022/02/19 07:21:28;;;;;;;13.30;5.15;;;;;;;7.06;47.10;93256.88;5011002;28;20080;-84
2022/02/19 07:23:55;;;;;;;17.60;6.82;;;;;;;7.21;47.40;93249.09;5011421;28;20104;-84
2022/02/19 07:26:21;;;;;;;13.88;5.55;;;;;;;7.38;47.03;93253.09;5011424;28;20465;-84
2022/02/19 07:28:48;;;;;;;13.95;8.15;;;;;;;7.57;46.20;93247.31;5011196;28;20057;-85
2022/02/19 07:31:19;;;;;;;9.38;3.38;;;;;;;7.78;45.85;93237.16;5011150;28;20050;-85
2022/02/19 07:33:46;;;;;;;6.40;3.75;;;;;;;7.87;45.31;93252.13;5010975;28;20407;-85
2022/02/19 07:36:13;;;;;;;7.30;2.88;;;;;;;8.01;44.89;93244.53;5011044;28;20050;-84
2022/02/19 07:38:40;;;;;;;33.63;16.23;;;;;;;8.26;44.30;93249.09;5010881;28;20046;-84
2022/02/19 07:41:07;;;;;;;17.15;7.47;;;;;;;8.33;44.41;93239.66;5011113;28;20042;-84
2022/02/19 07:43:33;;;;;;;39.58;20.08;;;;;;;8.51;44.78;93244.22;5010604;28;20046;-83
2022/02/19 07:46:00;;;;;;;10.45;3.42;;;;;;;8.64;43.79;93246.03;5011027;28;20419;-84
2022/02/19 07:48:29;;;;;;;8.45;3.38;;;;;;;8.71;43.29;93233.22;5011073;28;20077;-84
2022/02/19 07:59:09;;;;;;;7.72;2.80;;;;;;;9.09;43.11;93221.56;5011208;28;20144;-86
2022/02/19 08:01:36;;;;;;;9.02;4.95;;;;;;;9.16;42.74;93229.25;5010752;28;20077;-84
2022/02/19 08:04:04;;;;;;;8.80;4.63;;;;;;;9.42;42.98;93236.09;5010926;28;20053;-83
2022/02/19 08:06:33;;;;;;;7.05;3.22;;;;;;;9.54;42.55;93236.22;5011108;28;20057;-83
2022/02/19 08:09:00;;;;;;;13.82;7.97;;;;;;;9.66;42.11;93246.66;5011630;28;20140;-81
2022/02/19 08:11:26;;;;;;;11.73;5.82;;;;;;;9.77;41.46;93247.81;5010898;28;20521;-83
2022/02/19 08:13:54;;;;;;;6.50;3.25;;;;;;;9.90;41.86;93257.22;5010577;28;20049;-83
2022/02/19 08:16:21;;;;;;;7.55;4.45;;;;;;;10.08;40.89;93253.19;5011045;28;20477;-83
2022/02/19 08:18:50;;;;;;;11.55;7.05;;;;;;;10.21;40.70;93260.84;5010563;28;20536;-84
2022/02/19 08:21:20;;;;;;;10.02;5.43;;;;;;;10.29;40.77;93263.16;5010284;28;20512;-84
2022/02/19 08:23:47;;;;;;;14.25;8.70;;;;;;;10.49;39.88;93266.63;5011204;28;20052;-84
2022/02/19 08:26:13;;;;;;;9.95;5.93;;;;;;;10.59;39.66;93271.31;5010461;28;20053;-83
2022/02/19 08:28:41;;;;;;;8.52;4.30;;;;;;;10.80;40.39;93265.81;5010903;28;20096;-83
2022/02/19 08:31:08;;;;;;;13.02;8.88;;;;;;;10.93;38.40;93262.34;5010749;28;20062;-85
2022/02/19 08:33:34;;;;;;;12.00;5.88;;;;;;;11.02;39.25;93268.03;5010495;28;20509;-84
2022/02/19 08:36:01;;;;;;;6.82;3.20;;;;;;;11.08;39.29;93263.84;5010525;28;20069;-84
2022/02/19 08:38:29;;;;;;;6.18;2.88;;;;;;;11.12;39.79;93256.47;5010935;28;20092;-84
2022/02/19 08:40:56;;;;;;;11.40;6.72;;;;;;;11.19;38.30;93252.84;5010785;28;20049;-86
2022/02/19 08:43:23;;;;;;;5.78;2.47;;;;;;;11.22;39.25;93249.84;5010751;28;20046;-85
2022/02/19 08:45:50;;;;;;;6.40;1.90;;;;;;;11.29;38.93;93259.31;5011713;28;20061;-84
2022/02/19 08:48:17;;;;;;;5.53;1.85;;;;;;;11.29;38.62;93221.50;5014297;28;20046;-85
2022/02/19 08:50:44;;;;;;;3.83;1.83;;;;;;;11.57;39.14;93245.19;5014105;28;20054;-84
2022/02/19 08:53:12;;;;;;;5.22;2.47;;;;;;;11.58;38.67;93246.75;5014052;28;20048;-83
2022/02/19 08:55:41;;;;;;;6.00;3.08;;;;;;;11.62;37.79;93256.38;5014452;28;20486;-83
2022/02/19 08:58:08;;;;;;;6.40;2.00;;;;;;;11.67;38.76;93253.16;5014013;28;20050;-82
2022/02/19 09:00:35;;;;;;;4.65;1.58;;;;;;;11.74;38.03;93247.94;5014302;28;20056;-84
2022/02/19 09:03:02;;;;;;;6.18;2.22;;;;;;;11.84;37.50;93245.66;5013990;28;20460;-84
2022/02/19 09:05:29;;;;;;;5.10;1.60;;;;;;;12.00;37.35;93249.41;5014192;28;20077;-84
2022/02/19 09:07:56;;;;;;;5.28;1.90;;;;;;;12.14;36.98;93249.28;5014276;28;20054;-84
2022/02/19 09:10:23;;;;;;;4.38;1.70;;;;;;;12.28;37.41;93247.34;5014081;28;20057;-83
2022/02/19 09:12:51;;;;;;;2.83;1.20;;;;;;;12.33;36.43;93239.72;5013598;28;20092;-84
2022/02/19 09:15:20;;;;;;;5.57;1.52;;;;;;;12.27;37.33;93251.69;5013449;28;20046;-83
2022/02/19 09:17:47;;;;;;;4.57;1.48;;;;;;;12.26;36.47;93242.38;5012943;28;20038;-84
2022/02/19 09:20:15;;;;;;;2.70;1.10;;;;;;;12.33;37.01;93254.38;5012950;28;20046;-83
2022/02/19 09:23:47;;;;;;;5.72;2.75;;;;;;;11.99;37.36;93165.47;5012969;28;20632;-86
2022/02/19 09:26:20;;;;;;;3.65;1.60;;;;;;;12.59;36.18;93242.16;4951387;29;20059;-84
2022/02/19 09:28:50;;;;;;;4.00;1.80;;;;;;;12.70;37.03;93256.84;4975599;28;20096;-83
2022/02/19 09:31:43;;;;;;;8.15;2.50;;;;;;;12.69;35.90;93265.59;5010199;28;20041;-83
2022/02/19 09:34:10;;;;;;;10.23;3.42;;;;;;;12.70;36.40;93262.78;4949155;29;20429;-83
2022/02/19 09:36:38;;;;;;;8.73;2.70;;;;;;;12.70;35.45;93262.78;4957819;28;20440;-83
2022/02/19 09:39:05;;;;;;;9.43;3.67;;;;;;;12.73;36.54;93264.13;4994216;28;20108;-83
2022/02/19 09:41:32;;;;;;;8.95;4.93;;;;;;;12.75;36.34;93274.22;4993863;28;20104;-83
2022/02/19 09:44:02;;;;;;;10.75;4.75;;;;;;;12.88;36.45;93276.63;4993913;28;20050;-83
2022/02/19 09:46:31;;;;;;;10.18;5.35;;;;;;;12.92;35.93;93256.31;4993967;28;20054;-83
2022/02/19 09:48:59;;;;;;;9.38;3.20;;;;;;;13.17;36.11;93269.00;4993666;28;20061;-83
2022/02/19 09:51:28;;;;;;;6.88;3.30;;;;;;;13.24;36.25;93243.09;4993977;28;20050;-83
2022/02/19 09:53:55;;;;;;;9.43;2.80;;;;;;;13.49;36.06;93262.75;5002483;28;20050;-83
2022/02/19 09:56:24;;;;;;;4.15;1.85;;;;;;;13.50;35.52;93248.81;5012688;28;20576;-85
2022/02/19 09:58:51;;;;;;;5.72;1.52;;;;;;;13.55;35.37;93253.31;5012464;28;20042;-83
2022/02/19 10:01:20;;;;;;;6.40;1.63;;;;;;;13.39;35.04;93250.38;5012904;28;20647;-84
2022/02/19 10:03:56;;;;;;;4.35;1.80;;;;;;;13.42;35.39;93249.16;5013240;28;20046;-83
2022/02/19 10:06:28;;;;;;;6.15;1.30;;;;;;;13.48;35.06;93250.84;5013189;28;20049;-83
2022/02/19 10:09:08;;;;;;;4.00;1.73;;;;;;;13.49;35.81;93258.38;5013019;28;20116;-84
2022/02/19 10:11:36;;;;;;;6.28;1.77;;;;;;;13.09;35.25;93191.97;5013088;28;20054;-84
2022/02/19 10:14:19;;;;;;;5.72;1.70;;;;;;;13.53;35.89;93229.53;5012889;28;20708;-83
2022/02/19 10:17:03;;;;;;;19.35;8.63;;;;;;;13.82;34.73;93245.84;5012947;28;20066;-83
2022/02/19 10:19:30;;;;;;;5.20;2.55;;;;;;;13.99;35.20;93239.97;5012805;28;20052;-83
2022/02/19 10:22:09;;;;;;;6.63;2.83;;;;;;;14.15;35.36;93241.03;5012748;28;20050;-83
2022/02/19 10:24:37;;;;;;;9.05;4.00;;;;;;;14.39;34.63;93228.78;5012791;28;20050;-86
2022/02/19 10:27:04;;;;;;;10.20;3.08;;;;;;;14.54;34.70;93236.00;5012476;28;20056;-83
2022/02/19 10:29:32;;;;;;;21.05;7.63;;;;;;;14.67;33.27;93229.75;5012499;28;20050;-84
2022/02/19 10:32:00;;;;;;;16.27;6.55;;;;;;;14.69;32.98;93221.78;5013103;28;20050;-83
2022/02/19 10:34:28;;;;;;;38.78;14.15;;;;;;;14.78;32.51;93229.97;4994586;28;20046;-83
2022/02/19 10:36:55;;;;;;;11.88;4.93;;;;;;;14.81;32.43;93225.09;5004986;28;20058;-83
2022/02/19 10:39:27;;;;;;;5.10;1.92;;;;;;;14.82;33.00;93203.38;5012619;28;20065;-83
2022/02/19 10:41:56;;;;;;;6.13;2.28;;;;;;;14.96;32.56;93203.84;5012302;28;20395;-84
2022/02/19 10:44:24;;;;;;;8.15;1.58;;;;;;;14.87;32.09;93204.50;5012402;28;20150;-83
2022/02/19 10:46:52;;;;;;;5.85;2.03;;;;;;;14.91;32.86;93198.59;5011009;28;20046;-84
2022/02/19 10:49:22;;;;;;;7.43;2.17;;;;;;;15.05;32.63;93195.69;5012094;28;20461;-83
2022/02/19 10:51:49;;;;;;;10.35;3.17;;;;;;;15.04;32.21;93187.16;5012090;28;20049;-85
2022/02/19 10:54:22;;;;;;;7.20;2.15;;;;;;;15.08;32.74;93188.25;5012185;28;20053;-83
2022/02/19 10:56:49;;;;;;;7.90;3.05;;;;;;;15.09;31.87;93184.63;5012072;28;20057;-83
2022/02/19 10:59:17;;;;;;;27.48;11.73;;;;;;;15.07;31.85;93178.91;5011946;28;20060;-83
2022/02/19 11:01:45;;;;;;;7.30;2.35;;;;;;;15.13;32.07;93181.59;5011921;28;20419;-84
2022/02/19 11:04:16;;;;;;;9.52;4.03;;;;;;;15.17;31.66;93174.88;5012126;28;20050;-84
2022/02/19 11:06:44;;;;;;;5.75;1.35;;;;;;;15.18;31.54;93169.47;5012074;28;20449;-85
2022/02/19 11:09:12;;;;;;;5.30;1.60;;;;;;;15.25;31.64;93165.94;5010917;28;20054;-83
2022/02/19 11:11:42;;;;;;;20.40;6.28;;;;;;;15.22;31.28;93156.84;5012085;28;20057;-87
2022/02/19 11:14:11;;;;;;;19.27;6.28;;;;;;;15.44;32.24;93163.84;5020814;28;20528;-84
2022/02/19 11:16:39;;;;;;;3.90;1.85;;;;;;;15.45;31.75;93166.19;5016571;28;20049;-81
2022/02/19 11:19:06;;;;;;;11.25;4.25;;;;;;;15.49;31.50;93167.28;5012295;28;20045;-85
2022/02/19 11:21:35;;;;;;;8.15;3.30;;;;;;;15.39;31.59;93136.09;5011762;28;20050;-84
2022/02/19 11:24:05;;;;;;;31.40;9.00;;;;;;;15.64;30.57;93160.69;5011631;28;20112;-86
2022/02/19 11:26:33;;;;;;;51.17;18.90;;;;;;;15.65;30.95;93156.31;5011598;28;20108;-87
2022/02/19 11:29:01;;;;;;;7.40;2.88;;;;;;;15.60;31.29;93160.41;5011848;28;20054;-86
2022/02/19 11:31:29;;;;;;;26.33;9.35;;;;;;;15.62;30.61;93149.81;5011604;28;20060;-86
2022/02/19 11:34:00;;;;;;;8.68;2.47;;;;;;;15.67;31.13;93138.72;5011271;28;20057;-87
2022/02/19 11:36:28;;;;;;;39.00;12.95;;;;;;;15.70;31.00;93127.91;5011699;28;20132;-86
2022/02/19 11:38:56;;;;;;;18.60;6.28;;;;;;;15.94;30.93;93143.97;5011409;28;20092;-87
2022/02/19 11:41:43;;;;;;;14.50;4.93;;;;;;;16.06;30.94;93143.03;5011279;28;20045;-85
2022/02/19 11:44:28;;;;;;;12.18;4.50;;;;;;;16.04;30.72;93114.78;5011457;28;20046;-84
2022/02/19 11:46:56;;;;;;;8.23;3.10;;;;;;;16.21;30.42;93127.63;5011312;28;20057;-84